Tocumen, Panama
Current Conditions -  °F | °C
As of 1:00 PM on Monday 24 Nov 2014 (Local Time) from MPTO Reporting Station
Scattered Clouds Scattered Clouds  
Wind Chill: 90°   Ceiling: Unl
Heat Index: 102°   Visibility: 6mi
Dew Point: 77°   Wind: 7mph
Humidity: 66%   Direction: 190°S
Pressure: 29.77"   Gusts: NA
Location:  9.08°N, 79.38°W
Report Text: MPTO 241800Z 19006KT 9999 SCT018TCU SCT090 32/25 Q1008 NOSIG
Loading
Personal Weather Stations






























Interactive Weather Map New forecast layout! Learn more

10-Day Weather Forecast

Advertisements
Track Severe Weather on mobile